sensor_id;sensor_type;location;lat;lon;timestamp;P1;durP1;ratioP1;P2;durP2;ratioP2
31716;SDS011;18301;51.076;17.046;2022-08-05T00:04:55;12.05;;;8.65;;
31716;SDS011;18301;51.076;17.046;2022-08-05T00:09:56;8.35;;;7.45;;
31716;SDS011;18301;51.076;17.046;2022-08-05T00:14:58;11.57;;;7.78;;
31716;SDS011;18301;51.076;17.046;2022-08-05T00:20:20;10.27;;;8.18;;
31716;SDS011;18301;51.076;17.046;2022-08-05T00:25:29;12.90;;;8.40;;
31716;SDS011;18301;51.076;17.046;2022-08-05T00:30:46;12.27;;;8.60;;
31716;SDS011;18301;51.076;17.046;2022-08-05T00:35:52;12.07;;;7.85;;
31716;SDS011;18301;51.076;17.046;2022-08-05T00:41:13;10.15;;;8.48;;
31716;SDS011;18301;51.076;17.046;2022-08-05T00:46:26;12.27;;;8.27;;
31716;SDS011;18301;51.076;17.046;2022-08-05T00:51:44;10.20;;;8.13;;
31716;SDS011;18301;51.076;17.046;2022-08-05T00:56:52;10.60;;;7.93;;
31716;SDS011;18301;51.076;17.046;2022-08-05T01:01:53;12.18;;;8.48;;
31716;SDS011;18301;51.076;17.046;2022-08-05T01:06:55;11.13;;;7.90;;
31716;SDS011;18301;51.076;17.046;2022-08-05T01:11:58;10.57;;;8.30;;
31716;SDS011;18301;51.076;17.046;2022-08-05T01:17:19;10.73;;;8.95;;
31716;SDS011;18301;51.076;17.046;2022-08-05T01:33:08;10.55;;;8.20;;
31716;SDS011;18301;51.076;17.046;2022-08-05T01:38:19;11.93;;;8.38;;
31716;SDS011;18301;51.076;17.046;2022-08-05T01:43:29;12.77;;;8.60;;
31716;SDS011;18301;51.076;17.046;2022-08-05T01:48:34;11.38;;;8.43;;
31716;SDS011;18301;51.076;17.046;2022-08-05T01:53:36;11.93;;;8.80;;
31716;SDS011;18301;51.076;17.046;2022-08-05T01:58:59;16.50;;;8.80;;
31716;SDS011;18301;51.076;17.046;2022-08-05T02:04:05;11.98;;;8.43;;
31716;SDS011;18301;51.076;17.046;2022-08-05T02:09:10;13.13;;;8.63;;
31716;SDS011;18301;51.076;17.046;2022-08-05T02:14:18;11.05;;;8.13;;
31716;SDS011;18301;51.076;17.046;2022-08-05T02:24:36;13.75;;;8.52;;
31716;SDS011;18301;51.076;17.046;2022-08-05T02:29:41;12.15;;;8.85;;
31716;SDS011;18301;51.076;17.046;2022-08-05T02:35:04;15.10;;;9.18;;
31716;SDS011;18301;51.076;17.046;2022-08-05T02:40:15;10.93;;;8.55;;
31716;SDS011;18301;51.076;17.046;2022-08-05T02:45:18;13.40;;;9.60;;
31716;SDS011;18301;51.076;17.046;2022-08-05T02:50:24;11.20;;;9.30;;
31716;SDS011;18301;51.076;17.046;2022-08-05T02:55:28;13.88;;;9.27;;
31716;SDS011;18301;51.076;17.046;2022-08-05T03:00:52;13.27;;;9.50;;
31716;SDS011;18301;51.076;17.046;2022-08-05T03:05:56;12.95;;;9.20;;
31716;SDS011;18301;51.076;17.046;2022-08-05T03:11:23;10.93;;;9.40;;
31716;SDS011;18301;51.076;17.046;2022-08-05T03:16:47;16.50;;;9.70;;
31716;SDS011;18301;51.076;17.046;2022-08-05T03:21:51;12.48;;;8.85;;
31716;SDS011;18301;51.076;17.046;2022-08-05T03:26:53;12.50;;;9.35;;
31716;SDS011;18301;51.076;17.046;2022-08-05T03:31:55;11.10;;;9.27;;
31716;SDS011;18301;51.076;17.046;2022-08-05T03:37:01;15.30;;;9.88;;
31716;SDS011;18301;51.076;17.046;2022-08-05T03:42:03;15.95;;;9.23;;
31716;SDS011;18301;51.076;17.046;2022-08-05T03:47:05;13.88;;;9.90;;
31716;SDS011;18301;51.076;17.046;2022-08-05T03:52:09;15.85;;;10.30;;
31716;SDS011;18301;51.076;17.046;2022-08-05T03:57:38;16.60;;;10.70;;
31716;SDS011;18301;51.076;17.046;2022-08-05T04:02:44;14.45;;;10.48;;
31716;SDS011;18301;51.076;17.046;2022-08-05T04:08:00;16.08;;;9.77;;
31716;SDS011;18301;51.076;17.046;2022-08-05T04:13:06;12.10;;;9.73;;
31716;SDS011;18301;51.076;17.046;2022-08-05T04:18:08;13.13;;;10.52;;
31716;SDS011;18301;51.076;17.046;2022-08-05T04:23:22;15.65;;;10.80;;
31716;SDS011;18301;51.076;17.046;2022-08-05T04:28:45;15.00;;;10.50;;
31716;SDS011;18301;51.076;17.046;2022-08-05T04:33:52;15.48;;;10.75;;
31716;SDS011;18301;51.076;17.046;2022-08-05T04:39:13;14.85;;;9.82;;
31716;SDS011;18301;51.076;17.046;2022-08-05T04:44:15;15.75;;;9.75;;
31716;SDS011;18301;51.076;17.046;2022-08-05T04:49:25;14.85;;;9.57;;
31716;SDS011;18301;51.076;17.046;2022-08-05T04:54:47;15.70;;;10.65;;
31716;SDS011;18301;51.076;17.046;2022-08-05T04:59:49;15.20;;;9.68;;
31716;SDS011;18301;51.076;17.046;2022-08-05T05:04:51;12.32;;;9.88;;
31716;SDS011;18301;51.076;17.046;2022-08-05T05:10:02;10.82;;;8.70;;
31716;SDS011;18301;51.076;17.046;2022-08-05T05:15:06;15.63;;;10.15;;
31716;SDS011;18301;51.076;17.046;2022-08-05T05:20:11;16.15;;;10.10;;
31716;SDS011;18301;51.076;17.046;2022-08-05T05:25:14;14.63;;;9.88;;
31716;SDS011;18301;51.076;17.046;2022-08-05T05:30:17;12.75;;;10.77;;
31716;SDS011;18301;51.076;17.046;2022-08-05T05:35:32;12.82;;;9.98;;
31716;SDS011;18301;51.076;17.046;2022-08-05T05:40:42;18.70;;;11.02;;
31716;SDS011;18301;51.076;17.046;2022-08-05T05:45:51;14.77;;;10.80;;
31716;SDS011;18301;51.076;17.046;2022-08-05T05:50:52;15.25;;;9.57;;
31716;SDS011;18301;51.076;17.046;2022-08-05T05:55:54;13.20;;;10.18;;
31716;SDS011;18301;51.076;17.046;2022-08-05T06:01:03;11.20;;;10.02;;
31716;SDS011;18301;51.076;17.046;2022-08-05T06:06:15;12.27;;;10.35;;
31716;SDS011;18301;51.076;17.046;2022-08-05T06:11:17;12.77;;;9.77;;
31716;SDS011;18301;51.076;17.046;2022-08-05T06:16:19;13.40;;;9.85;;
31716;SDS011;18301;51.076;17.046;2022-08-05T06:21:32;10.00;;;8.93;;
31716;SDS011;18301;51.076;17.046;2022-08-05T06:26:40;11.18;;;8.90;;
31716;SDS011;18301;51.076;17.046;2022-08-05T06:31:52;12.07;;;8.80;;
31716;SDS011;18301;51.076;17.046;2022-08-05T06:36:54;14.40;;;9.77;;
31716;SDS011;18301;51.076;17.046;2022-08-05T06:41:59;12.32;;;9.30;;
31716;SDS011;18301;51.076;17.046;2022-08-05T06:47:04;13.23;;;8.85;;
31716;SDS011;18301;51.076;17.046;2022-08-05T06:52:10;13.43;;;9.35;;
31716;SDS011;18301;51.076;17.046;2022-08-05T06:57:32;11.57;;;9.10;;
31716;SDS011;18301;51.076;17.046;2022-08-05T07:02:54;12.98;;;8.70;;
31716;SDS011;18301;51.076;17.046;2022-08-05T07:07:56;12.13;;;8.73;;
31716;SDS011;18301;51.076;17.046;2022-08-05T07:12:59;14.93;;;9.43;;
31716;SDS011;18301;51.076;17.046;2022-08-05T07:18:39;11.35;;;8.82;;
31716;SDS011;18301;51.076;17.046;2022-08-05T07:23:48;12.07;;;8.70;;
31716;SDS011;18301;51.076;17.046;2022-08-05T07:28:52;15.75;;;9.63;;
31716;SDS011;18301;51.076;17.046;2022-08-05T07:33:54;9.85;;;8.82;;
31716;SDS011;18301;51.076;17.046;2022-08-05T07:39:04;10.77;;;8.15;;
31716;SDS011;18301;51.076;17.046;2022-08-05T07:44:24;11.98;;;8.70;;
31716;SDS011;18301;51.076;17.046;2022-08-05T07:49:26;10.57;;;9.48;;
31716;SDS011;18301;51.076;17.046;2022-08-05T07:54:28;10.80;;;8.23;;
31716;SDS011;18301;51.076;17.046;2022-08-05T07:59:38;10.68;;;8.23;;
31716;SDS011;18301;51.076;17.046;2022-08-05T08:04:41;9.38;;;8.43;;
31716;SDS011;18301;51.076;17.046;2022-08-05T08:09:45;15.40;;;8.07;;
31716;SDS011;18301;51.076;17.046;2022-08-05T08:14:48;12.73;;;8.73;;
31716;SDS011;18301;51.076;17.046;2022-08-05T08:19:49;10.32;;;7.85;;
31716;SDS011;18301;51.076;17.046;2022-08-05T08:25:11;10.77;;;7.95;;
31716;SDS011;18301;51.076;17.046;2022-08-05T08:30:17;10.57;;;7.80;;
31716;SDS011;18301;51.076;17.046;2022-08-05T08:35:38;8.65;;;7.32;;
31716;SDS011;18301;51.076;17.046;2022-08-05T08:40:52;8.77;;;7.15;;
31716;SDS011;18301;51.076;17.046;2022-08-05T08:45:55;8.05;;;7.25;;
31716;SDS011;18301;51.076;17.046;2022-08-05T08:50:59;8.27;;;7.10;;
31716;SDS011;18301;51.076;17.046;2022-08-05T08:56:21;8.57;;;6.70;;
31716;SDS011;18301;51.076;17.046;2022-08-05T09:01:27;8.00;;;7.13;;
31716;SDS011;18301;51.076;17.046;2022-08-05T09:06:29;7.45;;;6.75;;
31716;SDS011;18301;51.076;17.046;2022-08-05T09:11:32;9.38;;;6.88;;
31716;SDS011;18301;51.076;17.046;2022-08-05T09:16:53;8.25;;;6.20;;
31716;SDS011;18301;51.076;17.046;2022-08-05T09:21:58;8.27;;;6.20;;
31716;SDS011;18301;51.076;17.046;2022-08-05T09:27:29;9.55;;;6.35;;
31716;SDS011;18301;51.076;17.046;2022-08-05T09:32:59;7.22;;;5.65;;
31716;SDS011;18301;51.076;17.046;2022-08-05T09:38:05;6.37;;;5.73;;
31716;SDS011;18301;51.076;17.046;2022-08-05T09:48:42;7.72;;;5.43;;
31716;SDS011;18301;51.076;17.046;2022-08-05T09:54:04;6.40;;;4.38;;
31716;SDS011;18301;51.076;17.046;2022-08-05T09:59:10;6.18;;;5.57;;
31716;SDS011;18301;51.076;17.046;2022-08-05T10:04:17;5.85;;;5.32;;
31716;SDS011;18301;51.076;17.046;2022-08-05T10:09:29;6.22;;;5.15;;
31716;SDS011;18301;51.076;17.046;2022-08-05T10:14:45;5.13;;;4.63;;
31716;SDS011;18301;51.076;17.046;2022-08-05T10:19:47;5.35;;;4.68;;
31716;SDS011;18301;51.076;17.046;2022-08-05T10:25:09;5.80;;;4.53;;
31716;SDS011;18301;51.076;17.046;2022-08-05T10:30:14;5.28;;;4.50;;
31716;SDS011;18301;51.076;17.046;2022-08-05T10:35:36;5.82;;;4.40;;
31716;SDS011;18301;51.076;17.046;2022-08-05T10:40:53;5.45;;;4.85;;
31716;SDS011;18301;51.076;17.046;2022-08-05T10:46:06;5.40;;;4.13;;
31716;SDS011;18301;51.076;17.046;2022-08-05T10:56:24;5.38;;;4.65;;
31716;SDS011;18301;51.076;17.046;2022-08-05T11:07:05;4.73;;;4.20;;
31716;SDS011;18301;51.076;17.046;2022-08-05T11:12:50;4.97;;;4.47;;
31716;SDS011;18301;51.076;17.046;2022-08-05T11:17:42;4.88;;;4.07;;
31716;SDS011;18301;51.076;17.046;2022-08-05T11:29:04;7.72;;;4.60;;
31716;SDS011;18301;51.076;17.046;2022-08-05T11:34:14;4.22;;;3.83;;
31716;SDS011;18301;51.076;17.046;2022-08-05T11:45:02;4.07;;;3.65;;
31716;SDS011;18301;51.076;17.046;2022-08-05T11:50:23;4.20;;;3.47;;
31716;SDS011;18301;51.076;17.046;2022-08-05T11:55:26;4.03;;;3.67;;
31716;SDS011;18301;51.076;17.046;2022-08-05T12:00:36;6.90;;;3.72;;
31716;SDS011;18301;51.076;17.046;2022-08-05T12:05:41;3.65;;;3.35;;
31716;SDS011;18301;51.076;17.046;2022-08-05T12:10:43;4.00;;;3.35;;
31716;SDS011;18301;51.076;17.046;2022-08-05T12:15:48;7.38;;;3.70;;
31716;SDS011;18301;51.076;17.046;2022-08-05T12:20:56;3.40;;;3.20;;
31716;SDS011;18301;51.076;17.046;2022-08-05T12:26:12;4.80;;;3.67;;
31716;SDS011;18301;51.076;17.046;2022-08-05T12:31:14;4.03;;;3.60;;
31716;SDS011;18301;51.076;17.046;2022-08-05T12:36:34;3.53;;;3.22;;
31716;SDS011;18301;51.076;17.046;2022-08-05T12:41:38;3.65;;;3.35;;
31716;SDS011;18301;51.076;17.046;2022-08-05T12:46:51;3.88;;;3.30;;
31716;SDS011;18301;51.076;17.046;2022-08-05T12:51:58;4.15;;;3.50;;
31716;SDS011;18301;51.076;17.046;2022-08-05T12:57:19;3.40;;;3.10;;
31716;SDS011;18301;51.076;17.046;2022-08-05T13:02:24;3.92;;;3.50;;
31716;SDS011;18301;51.076;17.046;2022-08-05T13:07:30;4.05;;;3.60;;
31716;SDS011;18301;51.076;17.046;2022-08-05T13:12:52;4.63;;;3.45;;
31716;SDS011;18301;51.076;17.046;2022-08-05T13:17:58;3.78;;;3.47;;
31716;SDS011;18301;51.076;17.046;2022-08-05T13:23:01;3.65;;;3.30;;
31716;SDS011;18301;51.076;17.046;2022-08-05T13:28:07;5.10;;;3.15;;
31716;SDS011;18301;51.076;17.046;2022-08-05T13:33:10;3.88;;;3.53;;
31716;SDS011;18301;51.076;17.046;2022-08-05T13:38:32;3.30;;;2.90;;
31716;SDS011;18301;51.076;17.046;2022-08-05T13:43:43;3.30;;;3.00;;
31716;SDS011;18301;51.076;17.046;2022-08-05T13:48:55;5.38;;;3.30;;
31716;SDS011;18301;51.076;17.046;2022-08-05T13:54:01;4.40;;;3.60;;
31716;SDS011;18301;51.076;17.046;2022-08-05T13:59:03;4.38;;;3.72;;
31716;SDS011;18301;51.076;17.046;2022-08-05T14:04:19;3.55;;;3.17;;
31716;SDS011;18301;51.076;17.046;2022-08-05T14:09:39;3.60;;;3.30;;
31716;SDS011;18301;51.076;17.046;2022-08-05T14:14:46;6.25;;;3.33;;
31716;SDS011;18301;51.076;17.046;2022-08-05T14:19:51;4.63;;;3.40;;
31716;SDS011;18301;51.076;17.046;2022-08-05T14:25:00;3.88;;;3.55;;
31716;SDS011;18301;51.076;17.046;2022-08-05T14:30:06;4.18;;;3.65;;
31716;SDS011;18301;51.076;17.046;2022-08-05T14:35:21;3.60;;;3.30;;
31716;SDS011;18301;51.076;17.046;2022-08-05T14:40:37;6.20;;;3.73;;
31716;SDS011;18301;51.076;17.046;2022-08-05T14:45:39;3.30;;;3.00;;
31716;SDS011;18301;51.076;17.046;2022-08-05T14:50:41;4.43;;;3.90;;
31716;SDS011;18301;51.076;17.046;2022-08-05T14:55:43;7.55;;;4.07;;
31716;SDS011;18301;51.076;17.046;2022-08-05T15:00:52;8.68;;;3.97;;
31716;SDS011;18301;51.076;17.046;2022-08-05T15:06:00;4.97;;;3.97;;
31716;SDS011;18301;51.076;17.046;2022-08-05T15:11:15;4.32;;;3.92;;
31716;SDS011;18301;51.076;17.046;2022-08-05T15:16:16;3.75;;;3.47;;
31716;SDS011;18301;51.076;17.046;2022-08-05T15:21:19;4.60;;;3.90;;
31716;SDS011;18301;51.076;17.046;2022-08-05T15:26:21;5.05;;;3.58;;
31716;SDS011;18301;51.076;17.046;2022-08-05T15:31:32;4.03;;;3.72;;
31716;SDS011;18301;51.076;17.046;2022-08-05T15:36:35;3.92;;;3.47;;
31716;SDS011;18301;51.076;17.046;2022-08-05T15:41:36;4.15;;;3.55;;
31716;SDS011;18301;51.076;17.046;2022-08-05T15:46:59;3.70;;;3.40;;
31716;SDS011;18301;51.076;17.046;2022-08-05T15:52:01;5.60;;;3.53;;
31716;SDS011;18301;51.076;17.046;2022-08-05T15:57:23;4.78;;;3.90;;
31716;SDS011;18301;51.076;17.046;2022-08-05T16:02:33;3.53;;;3.15;;
31716;SDS011;18301;51.076;17.046;2022-08-05T16:07:34;4.00;;;3.60;;
31716;SDS011;18301;51.076;17.046;2022-08-05T16:12:36;5.32;;;3.55;;
31716;SDS011;18301;51.076;17.046;2022-08-05T16:17:38;3.90;;;3.60;;
31716;SDS011;18301;51.076;17.046;2022-08-05T16:22:39;3.95;;;3.65;;
31716;SDS011;18301;51.076;17.046;2022-08-05T16:27:41;3.70;;;3.40;;
31716;SDS011;18301;51.076;17.046;2022-08-05T16:33:03;4.03;;;3.55;;
31716;SDS011;18301;51.076;17.046;2022-08-05T16:38:05;3.80;;;3.50;;
31716;SDS011;18301;51.076;17.046;2022-08-05T16:43:27;3.80;;;3.50;;
31716;SDS011;18301;51.076;17.046;2022-08-05T16:48:30;7.05;;;3.63;;
31716;SDS011;18301;51.076;17.046;2022-08-05T16:53:35;3.53;;;3.25;;
31716;SDS011;18301;51.076;17.046;2022-08-05T16:58:57;4.32;;;3.42;;
31716;SDS011;18301;51.076;17.046;2022-08-05T17:04:08;5.93;;;3.50;;
31716;SDS011;18301;51.076;17.046;2022-08-05T17:09:10;7.05;;;3.60;;
31716;SDS011;18301;51.076;17.046;2022-08-05T17:14:14;3.65;;;3.35;;
31716;SDS011;18301;51.076;17.046;2022-08-05T17:19:34;5.45;;;3.58;;
31716;SDS011;18301;51.076;17.046;2022-08-05T17:24:36;5.63;;;4.60;;
31716;SDS011;18301;51.076;17.046;2022-08-05T17:29:47;7.15;;;4.88;;
31716;SDS011;18301;51.076;17.046;2022-08-05T17:35:01;11.00;;;4.85;;
31716;SDS011;18301;51.076;17.046;2022-08-05T17:40:06;7.32;;;4.93;;
31716;SDS011;18301;51.076;17.046;2022-08-05T17:45:11;13.32;;;6.00;;
31716;SDS011;18301;51.076;17.046;2022-08-05T17:50:25;11.30;;;7.10;;
31716;SDS011;18301;51.076;17.046;2022-08-05T17:55:31;10.23;;;6.88;;
31716;SDS011;18301;51.076;17.046;2022-08-05T18:00:41;14.65;;;7.18;;
31716;SDS011;18301;51.076;17.046;2022-08-05T18:05:47;9.13;;;6.95;;
31716;SDS011;18301;51.076;17.046;2022-08-05T18:10:54;12.13;;;7.07;;
31716;SDS011;18301;51.076;17.046;2022-08-05T18:15:57;14.27;;;7.25;;
31716;SDS011;18301;51.076;17.046;2022-08-05T18:20:59;10.13;;;7.07;;
31716;SDS011;18301;51.076;17.046;2022-08-05T18:26:01;16.35;;;7.95;;
31716;SDS011;18301;51.076;17.046;2022-08-05T18:31:05;11.77;;;6.18;;
31716;SDS011;18301;51.076;17.046;2022-08-05T18:36:09;8.00;;;6.22;;
31716;SDS011;18301;51.076;17.046;2022-08-05T18:41:15;8.95;;;7.32;;
31716;SDS011;18301;51.076;17.046;2022-08-05T18:46:37;9.88;;;7.65;;
31716;SDS011;18301;51.076;17.046;2022-08-05T18:51:43;13.30;;;7.40;;
31716;SDS011;18301;51.076;17.046;2022-08-05T18:57:09;10.95;;;8.07;;
31716;SDS011;18301;51.076;17.046;2022-08-05T19:02:16;9.60;;;7.82;;
31716;SDS011;18301;51.076;17.046;2022-08-05T19:07:29;17.40;;;9.40;;
31716;SDS011;18301;51.076;17.046;2022-08-05T19:12:46;13.85;;;8.65;;
31716;SDS011;18301;51.076;17.046;2022-08-05T19:17:48;17.23;;;8.77;;
31716;SDS011;18301;51.076;17.046;2022-08-05T19:23:09;16.00;;;8.35;;
31716;SDS011;18301;51.076;17.046;2022-08-05T19:28:31;13.23;;;8.30;;
31716;SDS011;18301;51.076;17.046;2022-08-05T19:33:34;14.55;;;8.18;;
31716;SDS011;18301;51.076;17.046;2022-08-05T19:38:40;14.30;;;8.63;;
31716;SDS011;18301;51.076;17.046;2022-08-05T19:43:43;9.82;;;8.05;;
31716;SDS011;18301;51.076;17.046;2022-08-05T19:49:05;10.70;;;7.65;;
31716;SDS011;18301;51.076;17.046;2022-08-05T19:54:12;10.27;;;7.18;;
31716;SDS011;18301;51.076;17.046;2022-08-05T19:59:31;7.43;;;6.68;;
31716;SDS011;18301;51.076;17.046;2022-08-05T20:04:53;10.85;;;7.55;;
31716;SDS011;18301;51.076;17.046;2022-08-05T20:09:59;12.70;;;7.65;;
31716;SDS011;18301;51.076;17.046;2022-08-05T20:15:01;7.93;;;6.28;;
31716;SDS011;18301;51.076;17.046;2022-08-05T20:20:03;7.32;;;5.60;;
31716;SDS011;18301;51.076;17.046;2022-08-05T20:25:12;7.75;;;6.22;;
31716;SDS011;18301;51.076;17.046;2022-08-05T20:30:13;10.85;;;6.75;;
31716;SDS011;18301;51.076;17.046;2022-08-05T20:35:19;9.70;;;7.00;;
31716;SDS011;18301;51.076;17.046;2022-08-05T20:40:22;7.28;;;5.97;;
31716;SDS011;18301;51.076;17.046;2022-08-05T20:45:23;8.02;;;5.80;;
31716;SDS011;18301;51.076;17.046;2022-08-05T20:50:45;6.88;;;6.18;;
31716;SDS011;18301;51.076;17.046;2022-08-05T20:55:47;6.78;;;5.55;;
31716;SDS011;18301;51.076;17.046;2022-08-05T21:01:08;6.85;;;5.43;;
31716;SDS011;18301;51.076;17.046;2022-08-05T21:06:09;6.00;;;5.13;;
31716;SDS011;18301;51.076;17.046;2022-08-05T21:11:29;6.22;;;5.13;;
31716;SDS011;18301;51.076;17.046;2022-08-05T21:16:51;7.82;;;5.00;;
31716;SDS011;18301;51.076;17.046;2022-08-05T21:21:53;6.43;;;5.60;;
31716;SDS011;18301;51.076;17.046;2022-08-05T21:26:55;6.05;;;5.30;;
31716;SDS011;18301;51.076;17.046;2022-08-05T21:32:02;7.73;;;5.10;;
31716;SDS011;18301;51.076;17.046;2022-08-05T21:37:04;7.00;;;5.95;;
31716;SDS011;18301;51.076;17.046;2022-08-05T21:42:08;6.68;;;5.93;;
31716;SDS011;18301;51.076;17.046;2022-08-05T21:47:30;6.97;;;5.45;;
31716;SDS011;18301;51.076;17.046;2022-08-05T21:52:52;7.13;;;5.45;;
31716;SDS011;18301;51.076;17.046;2022-08-05T21:58:04;6.30;;;5.53;;
31716;SDS011;18301;51.076;17.046;2022-08-05T22:03:06;11.35;;;6.03;;
31716;SDS011;18301;51.076;17.046;2022-08-05T22:08:10;8.85;;;5.85;;
31716;SDS011;18301;51.076;17.046;2022-08-05T22:13:24;6.55;;;5.85;;
31716;SDS011;18301;51.076;17.046;2022-08-05T22:18:46;8.40;;;5.10;;
31716;SDS011;18301;51.076;17.046;2022-08-05T22:23:49;9.57;;;5.40;;
31716;SDS011;18301;51.076;17.046;2022-08-05T22:29:29;8.77;;;5.13;;
31716;SDS011;18301;51.076;17.046;2022-08-05T22:34:33;8.38;;;5.93;;
31716;SDS011;18301;51.076;17.046;2022-08-05T22:39:36;5.55;;;5.05;;
31716;SDS011;18301;51.076;17.046;2022-08-05T22:44:38;6.68;;;5.30;;
31716;SDS011;18301;51.076;17.046;2022-08-05T22:49:53;7.10;;;6.20;;
31716;SDS011;18301;51.076;17.046;2022-08-05T22:55:15;5.88;;;5.28;;
31716;SDS011;18301;51.076;17.046;2022-08-05T23:00:21;5.43;;;4.93;;
31716;SDS011;18301;51.076;17.046;2022-08-05T23:05:26;5.82;;;5.32;;
31716;SDS011;18301;51.076;17.046;2022-08-05T23:10:30;7.13;;;5.18;;
31716;SDS011;18301;51.076;17.046;2022-08-05T23:15:32;7.25;;;5.65;;
31716;SDS011;18301;51.076;17.046;2022-08-05T23:20:36;8.20;;;5.38;;
31716;SDS011;18301;51.076;17.046;2022-08-05T23:25:38;7.13;;;5.53;;
31716;SDS011;18301;51.076;17.046;2022-08-05T23:30:53;5.80;;;5.15;;
31716;SDS011;18301;51.076;17.046;2022-08-05T23:35:55;6.25;;;5.65;;
31716;SDS011;18301;51.076;17.046;2022-08-05T23:40:57;6.43;;;5.60;;
31716;SDS011;18301;51.076;17.046;2022-08-05T23:46:02;7.38;;;5.82;;
31716;SDS011;18301;51.076;17.046;2022-08-05T23:51:21;6.38;;;5.55;;
31716;SDS011;18301;51.076;17.046;2022-08-05T23:56:24;8.05;;;6.40;;
